createdAt,value
2022-08-08T00:00:52.594Z,945.57
2022-08-08T00:01:08.942Z,945.56
2022-08-08T00:02:03.749Z,945.54
2022-08-08T00:02:35.306Z,945.50
2022-08-08T00:03:32.636Z,945.49
2022-08-08T00:04:28.969Z,945.48
2022-08-08T00:05:44.026Z,945.48
2022-08-08T00:06:34.829Z,945.47
2022-08-08T00:07:28.872Z,945.44
2022-08-08T00:08:28.865Z,945.44
2022-08-08T00:09:33.127Z,945.45
2022-08-08T00:10:28.913Z,945.46
2022-08-08T00:11:57.890Z,945.47
2022-08-08T00:12:29.924Z,945.46
2022-08-08T00:14:14.956Z,945.47
2022-08-08T00:14:58.680Z,945.44
2022-08-08T00:15:56.697Z,945.46
2022-08-08T00:16:28.822Z,945.46
2022-08-08T00:17:35.263Z,945.47
2022-08-08T00:18:28.785Z,945.46
2022-08-08T00:19:28.765Z,945.47
2022-08-08T00:20:28.791Z,945.46
2022-08-08T00:21:29.644Z,945.45
2022-08-08T00:22:29.106Z,945.44
2022-08-08T00:23:43.251Z,945.43
2022-08-08T00:24:29.951Z,945.42
2022-08-08T00:25:44.863Z,945.42
2022-08-08T00:26:29.868Z,945.43
2022-08-08T00:27:32.813Z,945.43
2022-08-08T00:28:35.769Z,945.43
2022-08-08T00:29:45.654Z,945.43
2022-08-08T00:30:28.762Z,945.42
2022-08-08T00:32:20.133Z,945.42
2022-08-08T00:32:37.735Z,945.39
2022-08-08T00:33:29.170Z,945.39
2022-08-08T00:34:28.647Z,945.37
2022-08-08T00:35:28.650Z,945.37
2022-08-08T00:36:28.623Z,945.37
2022-08-08T00:37:48.076Z,945.36
2022-08-08T00:38:31.794Z,945.36
2022-08-08T00:41:06.948Z,945.34
2022-08-08T00:41:17.794Z,945.32
2022-08-08T00:41:55.142Z,945.30
2022-08-08T00:42:33.127Z,945.30
2022-08-08T00:43:39.956Z,945.33
2022-08-08T00:44:28.593Z,945.35
2022-08-08T00:45:32.161Z,945.37
2022-08-08T00:46:28.535Z,945.38
2022-08-08T00:47:36.900Z,945.40
2022-08-08T00:48:29.333Z,945.39
2022-08-08T00:49:32.301Z,945.37
2022-08-08T00:50:28.558Z,945.36
2022-08-08T00:51:38.321Z,945.36
2022-08-08T00:52:28.876Z,945.40
2022-08-08T00:53:29.324Z,945.37
2022-08-08T00:54:28.760Z,945.39
2022-08-08T00:55:52.433Z,945.39
2022-08-08T00:56:29.994Z,945.39
2022-08-08T00:57:34.555Z,945.37
2022-08-08T00:58:31.694Z,945.38
2022-08-08T00:59:44.217Z,945.34
2022-08-08T01:00:28.433Z,945.34
2022-08-08T01:01:37.640Z,945.34
2022-08-08T01:03:58.876Z,945.34
2022-08-08T01:04:07.988Z,945.35
2022-08-08T01:04:29.869Z,945.37
2022-08-08T01:05:42.613Z,945.37
2022-08-08T01:06:28.371Z,945.37
2022-08-08T01:07:54.840Z,945.34
2022-08-08T01:08:28.725Z,945.37
2022-08-08T01:09:35.873Z,945.38
2022-08-08T01:10:28.338Z,945.40
2022-08-08T01:11:28.391Z,945.41
2022-08-08T01:12:29.647Z,945.41
2022-08-08T01:13:43.869Z,945.42
2022-08-08T01:14:53.134Z,945.41
2022-08-08T01:15:43.479Z,945.40
2022-08-08T01:16:28.361Z,945.37
2022-08-08T01:17:44.836Z,945.35
2022-08-08T01:18:52.884Z,945.35
2022-08-08T01:19:51.867Z,945.33
2022-08-08T01:20:28.344Z,945.34
2022-08-08T01:22:03.861Z,945.36
2022-08-08T01:22:34.685Z,945.36
2022-08-08T01:24:07.084Z,945.37
2022-08-08T01:24:28.212Z,945.39
2022-08-08T01:25:40.797Z,945.38
2022-08-08T01:26:28.388Z,945.38
2022-08-08T01:27:33.075Z,945.37
2022-08-08T01:28:29.537Z,945.37
2022-08-08T01:29:35.122Z,945.36
2022-08-08T01:30:28.183Z,945.34
2022-08-08T01:32:13.676Z,945.34
2022-08-08T01:32:28.320Z,945.32
2022-08-08T01:33:33.853Z,945.32
2022-08-08T01:34:28.980Z,945.34
2022-08-08T01:35:38.409Z,945.33
2022-08-08T01:36:28.117Z,945.35
2022-08-08T01:37:56.312Z,945.36
2022-08-08T01:38:28.096Z,945.38
2022-08-08T01:39:28.476Z,945.38
2022-08-08T01:40:28.270Z,945.36
2022-08-08T01:41:28.066Z,945.37
2022-08-08T01:42:36.250Z,945.37
2022-08-08T01:43:34.513Z,945.37
2022-08-08T01:44:28.048Z,945.37
2022-08-08T01:45:28.032Z,945.36
2022-08-08T01:46:28.032Z,945.34
2022-08-08T01:48:15.681Z,945.34
2022-08-08T01:48:35.771Z,945.34
2022-08-08T01:49:37.629Z,945.36
2022-08-08T01:50:29.660Z,945.36
2022-08-08T01:51:32.037Z,945.35
2022-08-08T01:52:52.493Z,945.35
2022-08-08T01:55:26.621Z,945.36
2022-08-08T01:56:37.347Z,945.33
2022-08-08T01:56:47.042Z,945.39
2022-08-08T01:58:10.979Z,945.39
2022-08-08T01:58:47.195Z,945.37
2022-08-08T02:00:02.297Z,945.36
2022-08-08T02:00:42.473Z,945.36
2022-08-08T02:01:54.728Z,945.37
2022-08-08T02:02:42.737Z,945.36
2022-08-08T02:03:56.790Z,945.37
2022-08-08T02:04:43.411Z,945.43
2022-08-08T02:05:56.443Z,945.46
2022-08-08T02:06:43.299Z,945.45
2022-08-08T02:07:48.927Z,945.47
2022-08-08T02:08:47.231Z,945.45
2022-08-08T02:10:04.113Z,945.46
2022-08-08T02:10:45.026Z,945.45
2022-08-08T02:11:58.838Z,945.45
2022-08-08T02:12:42.249Z,945.45
2022-08-08T02:13:54.120Z,945.47
2022-08-08T02:14:55.155Z,945.47
2022-08-08T02:15:42.214Z,945.49
2022-08-08T02:16:42.884Z,945.50
2022-08-08T02:17:42.819Z,945.50
2022-08-08T02:18:42.178Z,945.52
2022-08-08T02:20:07.412Z,945.51
2022-08-08T02:21:00.627Z,945.53
2022-08-08T02:21:42.186Z,945.52
2022-08-08T02:22:45.992Z,945.52
2022-08-08T02:23:42.134Z,945.52
2022-08-08T02:24:42.124Z,945.54
2022-08-08T02:25:46.847Z,945.53
2022-08-08T02:26:42.107Z,945.54
2022-08-08T02:27:43.787Z,945.56
2022-08-08T02:28:42.084Z,945.57
2022-08-08T02:29:51.981Z,945.58
2022-08-08T02:30:49.819Z,945.58
2022-08-08T02:31:57.844Z,945.58
2022-08-08T02:32:42.072Z,945.60
2022-08-08T02:34:08.252Z,945.61
2022-08-08T02:35:08.279Z,945.60
2022-08-08T02:36:02.588Z,945.59
2022-08-08T02:36:42.033Z,945.60
2022-08-08T02:37:53.468Z,945.60
2022-08-08T02:38:42.014Z,945.62
2022-08-08T02:39:59.843Z,945.62
2022-08-08T02:40:45.041Z,945.62
2022-08-08T02:41:58.723Z,945.61
2022-08-08T02:42:42.377Z,945.64
2022-08-08T02:44:37.344Z,945.64
2022-08-08T02:44:59.146Z,945.65
2022-08-08T02:45:54.099Z,945.64
2022-08-08T02:46:41.958Z,945.64
2022-08-08T02:47:41.917Z,945.65
2022-08-08T02:48:42.645Z,945.65
2022-08-08T02:49:47.812Z,945.66
2022-08-08T02:50:41.904Z,945.66
2022-08-08T02:51:55.717Z,945.67
2022-08-08T02:52:41.909Z,945.67
2022-08-08T02:53:41.903Z,945.68
2022-08-08T02:54:41.891Z,945.69
2022-08-08T02:55:41.865Z,945.69
2022-08-08T02:56:41.855Z,945.67
2022-08-08T02:57:45.087Z,945.68
2022-08-08T02:58:41.929Z,945.67
2022-08-08T02:59:58.023Z,945.67
2022-08-08T03:00:47.075Z,945.66
2022-08-08T03:01:47.493Z,945.67
2022-08-08T03:02:41.805Z,945.67
2022-08-08T03:05:00.809Z,945.69
2022-08-08T03:05:11.491Z,945.69
2022-08-08T03:05:45.198Z,945.70
2022-08-08T03:06:41.760Z,945.71
2022-08-08T03:07:58.368Z,945.68
2022-08-08T03:08:41.765Z,945.69
2022-08-08T03:09:41.735Z,945.71
2022-08-08T03:10:44.255Z,945.70
2022-08-08T03:11:47.969Z,945.69
2022-08-08T03:13:02.221Z,945.68
2022-08-08T03:15:58.348Z,945.67
2022-08-08T03:16:09.133Z,945.67
2022-08-08T03:16:14.091Z,945.67
2022-08-08T03:17:19.996Z,945.69
2022-08-08T03:18:14.084Z,945.72
2022-08-08T03:19:14.083Z,945.71
2022-08-08T03:20:14.054Z,945.70
2022-08-08T03:21:14.533Z,945.74
2022-08-08T03:22:38.484Z,945.73
2022-08-08T03:23:17.583Z,945.76
2022-08-08T03:24:15.637Z,945.76
2022-08-08T03:25:17.923Z,945.77
2022-08-08T03:26:14.010Z,945.77
2022-08-08T03:27:14.000Z,945.76
2022-08-08T03:28:13.956Z,945.75
2022-08-08T03:29:16.695Z,945.77
2022-08-08T03:30:18.989Z,945.79
2022-08-08T03:31:24.928Z,945.81
2022-08-08T03:32:14.111Z,945.84
2022-08-08T03:33:56.288Z,945.82
2022-08-08T03:34:14.130Z,945.84
2022-08-08T03:35:13.953Z,945.83
2022-08-08T03:36:13.916Z,945.84
2022-08-08T03:37:58.930Z,945.85
2022-08-08T03:39:07.602Z,945.85
2022-08-08T03:39:20.059Z,945.82
2022-08-08T03:40:29.857Z,945.81
2022-08-08T03:41:32.177Z,945.80
2022-08-08T03:42:31.055Z,945.80
2022-08-08T03:43:17.968Z,945.85
2022-08-08T03:44:13.800Z,945.85
2022-08-08T03:46:06.928Z,945.88
2022-08-08T03:46:13.784Z,945.88
2022-08-08T03:47:20.669Z,945.91
2022-08-08T03:48:21.345Z,945.92
2022-08-08T03:49:57.431Z,945.88
2022-08-08T03:50:13.750Z,945.88
2022-08-08T03:51:14.311Z,945.88
2022-08-08T03:52:14.080Z,945.89
2022-08-08T03:53:13.739Z,945.91
2022-08-08T03:54:15.644Z,945.92
2022-08-08T03:55:56.695Z,945.92
2022-08-08T03:56:32.200Z,945.91
2022-08-08T03:58:30.934Z,945.91
2022-08-08T03:58:41.097Z,945.93
2022-08-08T03:59:22.806Z,945.94
2022-08-08T04:00:18.634Z,945.95
2022-08-08T04:01:24.670Z,945.98
2022-08-08T04:02:32.781Z,945.98
2022-08-08T04:03:13.720Z,945.99
2022-08-08T04:04:13.665Z,945.99
2022-08-08T04:05:13.643Z,945.98
2022-08-08T04:06:13.616Z,945.98
2022-08-08T04:07:16.407Z,945.99
2022-08-08T04:08:13.588Z,945.97
2022-08-08T04:09:13.594Z,945.99
2022-08-08T04:10:13.570Z,945.94
2022-08-08T04:11:17.327Z,945.92
2022-08-08T04:12:13.574Z,945.93
2022-08-08T04:13:18.140Z,945.93
2022-08-08T04:14:33.974Z,945.93
2022-08-08T04:15:13.542Z,945.92
2022-08-08T04:16:13.516Z,945.90
2022-08-08T04:17:15.856Z,945.91
2022-08-08T04:18:16.495Z,945.90
2022-08-08T04:19:25.042Z,945.93
2022-08-08T04:20:13.492Z,945.93
2022-08-08T04:21:13.480Z,945.93
2022-08-08T04:22:13.694Z,945.91
2022-08-08T04:23:13.467Z,945.93
2022-08-08T04:24:28.116Z,945.96
2022-08-08T04:25:17.200Z,945.98
2022-08-08T04:26:13.433Z,946.02
2022-08-08T04:27:19.609Z,946.01
2022-08-08T04:28:37.343Z,946.01
2022-08-08T04:29:14.977Z,946.00
2022-08-08T04:30:19.011Z,946.03
2022-08-08T04:31:56.663Z,946.06
2022-08-08T04:32:13.391Z,946.09
2022-08-08T04:33:15.538Z,946.11
2022-08-08T04:34:13.365Z,946.12
2022-08-08T04:35:13.617Z,946.12
2022-08-08T04:36:13.349Z,946.15
2022-08-08T04:37:13.355Z,946.10
2022-08-08T04:38:21.874Z,946.13
2022-08-08T04:40:04.261Z,946.10
2022-08-08T04:40:13.431Z,946.14
2022-08-08T04:41:17.798Z,946.12
2022-08-08T04:42:15.743Z,946.10
2022-08-08T04:43:13.305Z,946.11
2022-08-08T04:44:13.287Z,946.13
2022-08-08T04:45:13.279Z,946.15
2022-08-08T04:46:14.697Z,946.16
2022-08-08T04:47:13.254Z,946.18
2022-08-08T04:48:15.144Z,946.21
2022-08-08T04:49:13.235Z,946.22
2022-08-08T04:50:24.409Z,946.21
2022-08-08T04:51:17.506Z,946.20
2022-08-08T04:52:13.224Z,946.21
2022-08-08T04:53:52.510Z,946.22
2022-08-08T04:54:42.116Z,946.21
2022-08-08T04:55:20.699Z,946.24
2022-08-08T04:56:21.924Z,946.22
2022-08-08T04:57:21.481Z,946.24
2022-08-08T04:58:13.199Z,946.21
2022-08-08T04:59:13.153Z,946.22
2022-08-08T05:00:13.151Z,946.25
2022-08-08T05:01:13.228Z,946.26
2022-08-08T05:02:13.701Z,946.26
2022-08-08T05:03:13.288Z,946.26
2022-08-08T05:04:13.167Z,946.25
2022-08-08T05:05:19.991Z,946.24
2022-08-08T05:06:18.246Z,946.22
2022-08-08T05:07:14.864Z,946.19
2022-08-08T05:08:13.080Z,946.18
2022-08-08T05:09:13.093Z,946.17
2022-08-08T05:10:13.274Z,946.17
2022-08-08T05:11:16.050Z,946.16
2022-08-08T05:12:20.887Z,946.18
2022-08-08T05:13:17.612Z,946.19
2022-08-08T05:14:14.973Z,946.18
2022-08-08T05:15:15.385Z,946.19
2022-08-08T05:16:51.255Z,946.21
2022-08-08T05:17:13.006Z,946.20
2022-08-08T05:18:12.999Z,946.19
2022-08-08T05:20:12.117Z,946.19
2022-08-08T05:20:19.023Z,946.20
2022-08-08T05:21:14.479Z,946.22
2022-08-08T05:22:12.966Z,946.21
2022-08-08T05:23:12.947Z,946.23
2022-08-08T05:24:12.940Z,946.22
2022-08-08T05:25:12.944Z,946.22
2022-08-08T05:26:14.215Z,946.24
2022-08-08T05:27:12.913Z,946.26
2022-08-08T05:28:12.911Z,946.28
2022-08-08T05:29:12.899Z,946.28
2022-08-08T05:30:12.912Z,946.28
2022-08-08T05:32:02.577Z,946.27
2022-08-08T05:32:13.051Z,946.29
2022-08-08T05:33:12.860Z,946.31
2022-08-08T05:34:12.860Z,946.33
2022-08-08T05:35:13.690Z,946.33
2022-08-08T05:36:25.738Z,946.33
2022-08-08T05:37:17.031Z,946.35
2022-08-08T05:38:32.038Z,946.35
2022-08-08T05:39:12.838Z,946.37
2022-08-08T05:40:12.829Z,946.37
2022-08-08T05:41:12.792Z,946.39
2022-08-08T05:42:12.789Z,946.43
2022-08-08T05:43:38.701Z,946.43
2022-08-08T05:44:12.779Z,946.45
2022-08-08T05:45:30.832Z,946.43
2022-08-08T05:46:12.765Z,946.43
2022-08-08T05:47:14.209Z,946.44
2022-08-08T05:48:12.768Z,946.44
2022-08-08T05:49:12.722Z,946.46
2022-08-08T05:50:12.740Z,946.48
2022-08-08T05:51:15.659Z,946.47
2022-08-08T05:52:12.707Z,946.46
2022-08-08T05:53:53.611Z,946.47
2022-08-08T05:54:50.731Z,946.47
2022-08-08T05:55:14.234Z,946.50
2022-08-08T05:56:15.180Z,946.50
2022-08-08T05:57:12.657Z,946.49
2022-08-08T05:58:17.947Z,946.52
2022-08-08T05:59:14.084Z,946.51
2022-08-08T06:00:25.199Z,946.52
2022-08-08T06:01:12.643Z,946.53
2022-08-08T06:02:12.632Z,946.52
2022-08-08T06:03:17.377Z,946.51
2022-08-08T06:04:13.818Z,946.53
2022-08-08T06:05:34.348Z,946.57
2022-08-08T06:06:12.623Z,946.57
2022-08-08T06:07:12.582Z,946.58
2022-08-08T06:08:33.606Z,946.61
2022-08-08T06:09:58.019Z,946.60
2022-08-08T06:10:12.610Z,946.62
2022-08-08T06:11:13.232Z,946.61
2022-08-08T06:12:14.451Z,946.61
2022-08-08T06:13:22.379Z,946.62
2022-08-08T06:14:13.089Z,946.62
2022-08-08T06:15:12.625Z,946.61
2022-08-08T06:16:12.538Z,946.60
2022-08-08T06:17:12.521Z,946.62
2022-08-08T06:18:20.953Z,946.61
2022-08-08T06:19:16.382Z,946.61
2022-08-08T06:20:12.492Z,946.61
2022-08-08T06:21:28.276Z,946.63
2022-08-08T06:23:12.466Z,946.64
2022-08-08T06:24:13.803Z,946.63
2022-08-08T06:25:12.436Z,946.63
2022-08-08T06:26:39.082Z,946.62
2022-08-08T06:27:16.590Z,946.63
2022-08-08T06:28:12.538Z,946.64
2022-08-08T06:29:49.207Z,946.64
2022-08-08T06:30:20.164Z,946.65
2022-08-08T06:31:15.499Z,946.67
2022-08-08T06:32:14.950Z,946.66
2022-08-08T06:33:13.253Z,946.68
2022-08-08T06:34:25.822Z,946.67
2022-08-08T06:36:07.626Z,946.68
2022-08-08T06:36:14.500Z,946.71
2022-08-08T06:37:24.264Z,946.72
2022-08-08T06:38:14.873Z,946.72
2022-08-08T06:39:12.447Z,946.72
2022-08-08T06:40:16.076Z,946.74
2022-08-08T06:41:13.515Z,946.76
2022-08-08T06:42:12.294Z,946.76
2022-08-08T06:43:12.381Z,946.75
2022-08-08T06:44:12.308Z,946.75
2022-08-08T06:45:12.446Z,946.75
2022-08-08T06:46:12.838Z,946.76
2022-08-08T06:47:12.340Z,946.76
2022-08-08T06:48:12.270Z,946.75
2022-08-08T06:49:12.384Z,946.75
2022-08-08T06:50:12.738Z,946.74
2022-08-08T06:51:12.364Z,946.74
2022-08-08T06:52:12.183Z,946.75
2022-08-08T06:53:16.993Z,946.75
2022-08-08T06:54:12.178Z,946.78
2022-08-08T06:55:12.296Z,946.80
2022-08-08T06:56:12.168Z,946.82
2022-08-08T06:57:12.271Z,946.84
2022-08-08T06:58:12.155Z,946.82
2022-08-08T06:59:12.628Z,946.85
2022-08-08T07:00:13.026Z,946.87
2022-08-08T07:02:17.619Z,946.87
2022-08-08T07:02:32.462Z,946.88
2022-08-08T07:03:52.303Z,946.87
2022-08-08T07:04:47.939Z,946.89
2022-08-08T07:05:20.469Z,946.88
2022-08-08T07:06:12.103Z,946.91
2022-08-08T07:07:12.421Z,946.92
2022-08-08T07:08:12.122Z,946.93
2022-08-08T07:09:15.330Z,946.89
2022-08-08T07:10:12.401Z,946.89
2022-08-08T07:11:22.214Z,946.89
2022-08-08T07:12:12.501Z,946.90
2022-08-08T07:13:12.022Z,946.91
2022-08-08T07:14:11.998Z,946.93
2022-08-08T07:15:32.389Z,946.92
2022-08-08T07:16:12.332Z,946.94
2022-08-08T07:17:14.623Z,946.92
2022-08-08T07:18:35.734Z,946.95
2022-08-08T07:19:11.994Z,946.97
2022-08-08T07:20:11.958Z,946.94
2022-08-08T07:21:18.852Z,946.94
2022-08-08T07:22:18.917Z,946.94
2022-08-08T07:23:12.055Z,946.92
2022-08-08T07:24:12.602Z,946.93
2022-08-08T07:25:14.347Z,946.94
2022-08-08T07:26:12.013Z,946.95
2022-08-08T07:27:11.899Z,946.94
2022-08-08T07:28:19.887Z,946.95
2022-08-08T07:29:42.004Z,946.96
2022-08-08T07:30:16.671Z,946.95
2022-08-08T07:31:11.852Z,946.97
2022-08-08T07:32:15.648Z,946.99
2022-08-08T07:33:11.859Z,946.98
2022-08-08T07:34:20.346Z,946.99
2022-08-08T07:35:11.868Z,947.00
2022-08-08T07:36:11.821Z,947.00
2022-08-08T07:37:13.322Z,947.02
2022-08-08T07:38:20.526Z,947.03
2022-08-08T07:39:13.347Z,947.04
2022-08-08T07:40:11.864Z,947.04
2022-08-08T07:41:16.740Z,947.03
2022-08-08T07:42:12.549Z,947.04
2022-08-08T07:43:11.787Z,947.03
2022-08-08T07:44:40.374Z,947.01
2022-08-08T07:45:11.748Z,947.01
2022-08-08T07:46:23.791Z,946.96
2022-08-08T07:47:11.720Z,946.96
2022-08-08T07:48:19.527Z,946.97
2022-08-08T07:49:11.830Z,946.96
2022-08-08T07:50:11.693Z,946.97
2022-08-08T07:51:24.292Z,946.97
2022-08-08T07:52:13.327Z,946.95
2022-08-08T07:53:11.684Z,946.94
2022-08-08T07:54:11.677Z,946.97
2022-08-08T07:55:11.671Z,946.97
2022-08-08T07:56:11.638Z,946.94
2022-08-08T07:57:11.726Z,946.93
2022-08-08T07:58:12.902Z,946.94
2022-08-08T07:59:11.767Z,946.92
2022-08-08T08:00:16.036Z,946.91
2022-08-08T08:01:11.682Z,946.91
2022-08-08T08:02:33.631Z,946.90
2022-08-08T08:03:23.868Z,946.90
2022-08-08T08:04:13.643Z,946.86
2022-08-08T08:05:14.989Z,946.87
2022-08-08T08:06:11.550Z,946.87
2022-08-08T08:07:11.915Z,946.87
2022-08-08T08:08:11.532Z,946.90
2022-08-08T08:09:11.527Z,946.90
2022-08-08T08:10:12.524Z,946.91
2022-08-08T08:11:11.511Z,946.88
2022-08-08T08:12:30.227Z,946.88
2022-08-08T08:13:17.841Z,946.87
2022-08-08T08:14:11.520Z,946.86
2022-08-08T08:15:11.645Z,946.86
2022-08-08T08:16:11.460Z,946.85
2022-08-08T08:17:21.051Z,946.87
2022-08-08T08:18:32.377Z,946.88
2022-08-08T08:19:21.248Z,946.88
2022-08-08T08:20:20.933Z,946.85
2022-08-08T08:21:18.582Z,946.84
2022-08-08T08:22:12.426Z,946.82
2022-08-08T08:25:55.185Z,946.83
2022-08-08T08:26:47.033Z,946.83
2022-08-08T08:31:34.773Z,946.86
2022-08-08T08:36:18.413Z,946.89
2022-08-08T08:37:11.379Z,946.93
2022-08-08T08:38:18.507Z,946.92
2022-08-08T08:39:17.455Z,946.95
2022-08-08T08:40:13.174Z,946.97
2022-08-08T08:41:17.218Z,946.96
2022-08-08T08:42:11.794Z,946.97
2022-08-08T08:45:44.418Z,947.00
2022-08-08T08:46:47.343Z,946.98
2022-08-08T08:47:45.062Z,947.01
2022-08-08T08:48:49.447Z,947.01
2022-08-08T08:49:44.422Z,947.02
2022-08-08T08:50:44.461Z,947.06
2022-08-08T08:51:51.309Z,947.07
2022-08-08T08:52:59.676Z,947.04
2022-08-08T08:53:59.105Z,947.06
2022-08-08T08:54:44.402Z,947.10
2022-08-08T08:55:44.369Z,947.13
2022-08-08T08:56:44.406Z,947.13
2022-08-08T08:57:44.391Z,947.16
2022-08-08T08:58:50.090Z,947.15
2022-08-08T09:00:01.607Z,947.13
2022-08-08T09:01:04.816Z,947.15
2022-08-08T09:01:45.587Z,947.19
2022-08-08T09:02:44.323Z,947.15
2022-08-08T09:03:47.799Z,947.18
2022-08-08T09:04:49.677Z,947.16
2022-08-08T09:05:54.995Z,947.15
2022-08-08T09:06:50.031Z,947.13
2022-08-08T09:07:52.370Z,947.13
2022-08-08T09:08:44.293Z,947.15
2022-08-08T09:09:48.278Z,947.13
2022-08-08T09:10:59.992Z,947.16
2022-08-08T09:11:47.421Z,947.15
2022-08-08T09:12:45.362Z,947.13
2022-08-08T09:13:44.273Z,947.13
2022-08-08T09:14:47.689Z,947.14
2022-08-08T09:15:44.302Z,947.15
2022-08-08T09:16:47.875Z,947.12
2022-08-08T09:17:55.459Z,947.19
2022-08-08T09:18:47.422Z,947.15
2022-08-08T09:22:01.965Z,947.15
2022-08-08T09:22:09.849Z,947.15
2022-08-08T09:22:26.016Z,947.14
2022-08-08T09:23:17.524Z,947.13
2022-08-08T09:24:15.414Z,947.12
2022-08-08T09:25:15.415Z,947.12
2022-08-08T09:26:16.870Z,947.16
2022-08-08T09:27:20.398Z,947.15
2022-08-08T09:28:35.456Z,947.14
2022-08-08T09:29:22.475Z,947.18
2022-08-08T09:30:20.358Z,947.17
2022-08-08T09:31:18.524Z,947.15
2022-08-08T09:32:15.103Z,947.15
2022-08-08T09:34:14.817Z,947.13
2022-08-08T09:34:38.021Z,947.12
2022-08-08T09:35:18.010Z,947.12
2022-08-08T09:36:15.050Z,947.17
2022-08-08T09:37:39.522Z,947.17
2022-08-08T09:38:17.976Z,947.13
2022-08-08T09:39:18.963Z,947.15
2022-08-08T09:40:18.751Z,947.11
2022-08-08T09:41:18.519Z,947.09
2022-08-08T09:42:22.265Z,947.10
2022-08-08T09:43:16.446Z,947.07
2022-08-08T09:44:19.046Z,947.07
2022-08-08T09:45:54.013Z,947.06
2022-08-08T09:46:16.724Z,947.05
2022-08-08T09:48:03.921Z,947.03
2022-08-08T09:48:21.363Z,947.01
2022-08-08T09:49:41.365Z,946.99
2022-08-08T09:50:14.969Z,946.97
2022-08-08T09:51:15.653Z,947.00
2022-08-08T09:52:53.904Z,946.96
2022-08-08T09:54:08.325Z,946.96
2022-08-08T09:54:36.673Z,946.94
2022-08-08T09:55:17.578Z,946.96
2022-08-08T09:56:25.473Z,946.91
2022-08-08T09:57:16.846Z,946.91
2022-08-08T09:58:27.952Z,946.95
2022-08-08T09:59:50.646Z,946.95
2022-08-08T10:00:37.425Z,946.98
2022-08-08T10:02:00.148Z,946.98
2022-08-08T10:02:15.867Z,946.95
2022-08-08T10:03:19.948Z,946.90
2022-08-08T10:04:38.382Z,946.93
2022-08-08T10:05:25.505Z,946.91
2022-08-08T10:07:09.582Z,946.88
2022-08-08T10:07:21.656Z,946.88
2022-08-08T10:08:30.839Z,946.90
2022-08-08T10:12:25.856Z,946.97
2022-08-08T10:12:37.890Z,946.89
2022-08-08T10:13:43.029Z,946.88
2022-08-08T10:16:37.788Z,946.85
2022-08-08T10:18:05.712Z,946.86
2022-08-08T10:18:37.806Z,946.87
2022-08-08T10:20:17.121Z,946.85
2022-08-08T10:21:50.984Z,946.84
2022-08-08T10:29:31.119Z,946.81
2022-08-08T10:29:58.963Z,946.82
2022-08-08T10:31:00.755Z,946.81
2022-08-08T10:31:47.052Z,946.80
2022-08-08T10:32:37.297Z,946.77
2022-08-08T10:36:09.234Z,946.79
2022-08-08T10:36:30.986Z,946.79
2022-08-08T10:41:35.699Z,946.80
2022-08-08T10:42:30.565Z,946.85
2022-08-08T10:43:32.253Z,946.82
2022-08-08T10:44:30.369Z,946.78
2022-08-08T10:45:30.306Z,946.79
2022-08-08T10:46:30.792Z,946.80
2022-08-08T10:47:43.369Z,946.80
2022-08-08T10:48:31.067Z,946.80
2022-08-08T10:50:01.368Z,946.79
2022-08-08T10:50:30.706Z,946.83
2022-08-08T10:51:47.322Z,946.82
2022-08-08T10:52:59.621Z,946.83
2022-08-08T10:53:39.341Z,946.84
2022-08-08T10:54:31.344Z,946.85
2022-08-08T10:55:41.679Z,946.87
2022-08-08T10:56:32.185Z,946.86
2022-08-08T10:57:45.395Z,946.84
2022-08-08T10:58:30.714Z,946.85
2022-08-08T10:59:30.989Z,946.84
2022-08-08T11:00:30.846Z,946.83
2022-08-08T11:01:33.626Z,946.82
2022-08-08T11:02:33.041Z,946.80
2022-08-08T11:04:00.909Z,946.77
2022-08-08T11:04:39.178Z,946.78
2022-08-08T11:06:00.325Z,946.77
2022-08-08T11:06:47.463Z,946.76
2022-08-08T11:08:30.228Z,946.75
2022-08-08T11:08:53.041Z,946.75
2022-08-08T11:09:34.912Z,946.73
2022-08-08T11:10:30.113Z,946.71
2022-08-08T11:11:32.844Z,946.71
2022-08-08T11:12:31.562Z,946.72
2022-08-08T11:13:31.896Z,946.73
2022-08-08T11:14:34.968Z,946.71
2022-08-08T11:15:31.214Z,946.74
2022-08-08T11:16:33.074Z,946.72
2022-08-08T11:17:58.672Z,946.69
2022-08-08T11:18:30.229Z,946.70
2022-08-08T11:19:29.970Z,946.70
2022-08-08T11:20:30.049Z,946.68
2022-08-08T11:21:35.349Z,946.67
2022-08-08T11:22:30.186Z,946.68
2022-08-08T11:23:31.194Z,946.69
2022-08-08T11:24:29.972Z,946.72
2022-08-08T11:25:52.150Z,946.71
2022-08-08T11:26:29.921Z,946.66
2022-08-08T11:27:37.213Z,946.68
2022-08-08T11:28:31.737Z,946.66
2022-08-08T11:29:51.185Z,946.63
2022-08-08T11:30:31.711Z,946.65
2022-08-08T11:31:30.105Z,946.61
2022-08-08T11:32:30.449Z,946.70
2022-08-08T11:33:52.058Z,946.64
2022-08-08T11:34:41.926Z,946.63
2022-08-08T11:35:37.510Z,946.63
2022-08-08T11:36:29.825Z,946.68
2022-08-08T11:38:36.542Z,946.68
2022-08-08T11:38:54.920Z,946.68
2022-08-08T11:43:07.020Z,946.62
2022-08-08T11:44:07.382Z,946.59
2022-08-08T11:45:07.069Z,946.57
2022-08-08T11:46:13.393Z,946.56
2022-08-08T11:47:12.879Z,946.57
2022-08-08T11:48:09.683Z,946.56
2022-08-08T11:49:08.591Z,946.60
2022-08-08T11:50:06.891Z,946.53
2022-08-08T11:51:38.137Z,946.50
2022-08-08T11:52:06.910Z,946.55
2022-08-08T11:53:06.993Z,946.51
2022-08-08T11:54:31.665Z,946.57
2022-08-08T11:55:09.722Z,946.61
2022-08-08T11:56:06.897Z,946.53
2022-08-08T11:57:06.845Z,946.55
2022-08-08T11:58:14.610Z,946.54
2022-08-08T11:59:06.808Z,946.58
2022-08-08T12:00:07.768Z,946.58
2022-08-08T12:01:12.185Z,946.55
2022-08-08T12:02:31.007Z,946.52
2022-08-08T12:03:07.050Z,946.52
2022-08-08T12:04:07.026Z,946.52
2022-08-08T12:05:06.993Z,946.50
2022-08-08T12:06:06.739Z,946.49
2022-08-08T12:07:16.842Z,946.51
2022-08-08T12:08:06.770Z,946.51
2022-08-08T12:09:06.745Z,946.54
2022-08-08T12:10:08.790Z,946.49
2022-08-08T12:11:06.695Z,946.51
2022-08-08T12:12:06.690Z,946.52
2022-08-08T12:13:06.854Z,946.51
2022-08-08T12:14:07.742Z,946.52
2022-08-08T12:15:06.669Z,946.54
2022-08-08T12:16:06.654Z,946.51
2022-08-08T12:17:06.674Z,946.55
2022-08-08T12:18:06.638Z,946.56
2022-08-08T12:19:06.639Z,946.54
2022-08-08T12:20:06.627Z,946.55
2022-08-08T12:21:06.647Z,946.53
2022-08-08T12:22:09.160Z,946.51
2022-08-08T12:23:06.606Z,946.54
2022-08-08T12:24:06.624Z,946.55
2022-08-08T12:25:06.567Z,946.53
2022-08-08T12:26:06.585Z,946.51
2022-08-08T12:27:07.044Z,946.48
2022-08-08T12:28:06.556Z,946.49
2022-08-08T12:29:06.563Z,946.48
2022-08-08T12:30:15.704Z,946.48
2022-08-08T12:31:06.541Z,946.50
2022-08-08T12:32:09.417Z,946.46
2022-08-08T12:33:07.850Z,946.41
2022-08-08T12:34:06.517Z,946.41
2022-08-08T12:35:17.734Z,946.39
2022-08-08T12:36:06.496Z,946.39
2022-08-08T12:37:08.294Z,946.39
2022-08-08T12:38:06.463Z,946.39
2022-08-08T12:39:06.805Z,946.40
2022-08-08T12:40:06.611Z,946.35
2022-08-08T12:41:34.088Z,946.38
2022-08-08T12:42:06.435Z,946.37
2022-08-08T12:43:06.517Z,946.36
2022-08-08T12:44:06.436Z,946.38
2022-08-08T12:45:19.909Z,946.41
2022-08-08T12:46:06.402Z,946.38
2022-08-08T12:47:08.207Z,946.34
2022-08-08T12:48:10.521Z,946.38
2022-08-08T12:49:40.245Z,946.39
2022-08-08T12:50:06.366Z,946.32
2022-08-08T12:51:10.995Z,946.32
2022-08-08T12:52:06.347Z,946.38
2022-08-08T12:53:07.088Z,946.42
2022-08-08T12:54:24.189Z,946.49
2022-08-08T12:55:09.404Z,946.51
2022-08-08T12:56:18.099Z,946.43
2022-08-08T12:57:06.313Z,946.46
2022-08-08T12:58:06.329Z,946.45
2022-08-08T12:59:06.281Z,946.44
2022-08-08T13:00:13.636Z,946.49
2022-08-08T13:01:06.335Z,946.42
2022-08-08T13:02:06.310Z,946.45
2022-08-08T13:03:07.465Z,946.40
2022-08-08T13:04:06.239Z,946.42